Route Details

Aircraft Information
Group: North America Fleet
Types: B738, B752, B762, B763
Route Data
Distance: 337nm
Duration: 1h 39m
Origin METAR: KIAD 072352Z 18004KT 10SM BKN150 OVC200 10/00 A3016 RMK AO2 SLP215 T01000000 10111 20083 56006
Dest. METAR: KCVG 072352Z 25008KT 10SM -RA SCT027 OVC036 12/09 A3015 RMK AO2 RAB21 SLP207 SCT V BKN P0000 60001 T01170094 10133 20111 51019
Freight Data
(for Feb 8, 2023)
Load Factor:
45%
Manifested Cargo: 55,778lbs
Financial History
Total Freight: 201,967lbs
Average Load: 0lbs/flt
Fuel Used: 29,627lbs
Avg. Fuel Used: 0lbs/flt
Fuel Expense: $15,861
Avg. Fuel Expense: $0
Avg. Fuel Cost: $0/lbs
Total Gross Income: $515,016
Pilot Pay: $696
Total Expenses: $115,328
Total Revenue: $382,081
Average Revenue: $0

Capitol Logistics 366




KIAD
Washington Dulles International Airport
Dulles, Virginia
KCVG
Cincinnati/Northern Kentucky International Airport
Covington, Kentucky

Activity Log

Date Flight Route Aircraft Duration
01/16/2023 CPX366 RNLDI4 OTTTO Q176 COLNS GAVNN6 B738 1h 25m
11/22/2022 CPX366 RNLDI4 OTTTO Q176 COLNS GAVNN6 B752 1h 21m
10/13/2022 CPX366 MCRAY2 MCRAY J518 IHD/N0457F380 CTW TIGRR3 B763 1h 42m
07/15/2022 CPX366 RNLDI4 OTTTO Q176 COLNS GAVNN6 B752 1h 25m